SHT5X EGAC-EGLL
Flight info
| Callsign | SHT5X |
|---|---|
| Flight time | 0h 50m |
| Altitude | 33000 |
| Route | DUFFY L10 RINGA Q39 BABGU DCT ETIGA DCT INKOB Q39 NOMSU UQ4 WAL UY53 NUGRA |
| Aircraft | A320/M-SDE3FGHIRWY/LB1 |
Departure
| Time | 2026-04-26 10:04 |
|---|---|
| Airport | George Best Belfast City Airport (EGAC) |
Arrival
| Time | 2026-04-26 10:54 |
|---|---|
| Airport | London Heathrow Airport (EGLL) |
| Time | Latitude | Longitude | Altitude | Speed | Heading |
|---|---|---|---|---|---|
| 2026-04-26 09:05 | 54.61500 | -5.87145 | 21 ft | 0 kts | 155° |
| 2026-04-26 09:53 | 54.61506 | -5.87151 | 22 ft | 4 kts | 167° |
| 2026-04-26 09:53 | 54.61530 | -5.87162 | 25 ft | 4 kts | 150° |
| 2026-04-26 09:53 | 54.61544 | -5.87187 | 25 ft | 4 kts | 78° |
| 2026-04-26 09:54 | 54.61531 | -5.87223 | 24 ft | 4 kts | 39° |
| 2026-04-26 09:54 | 54.61522 | -5.87234 | 26 ft | 0 kts | 35° |
| 2026-04-26 09:57 | 54.61525 | -5.87231 | 23 ft | 1 kts | 35° |
| 2026-04-26 09:57 | 54.61540 | -5.87213 | 22 ft | 4 kts | 35° |
| 2026-04-26 09:57 | 54.61571 | -5.87176 | 21 ft | 7 kts | 35° |
| 2026-04-26 09:58 | 54.61618 | -5.87120 | 21 ft | 10 kts | 34° |
| 2026-04-26 09:58 | 54.61663 | -5.87066 | 21 ft | 7 kts | 34° |
| 2026-04-26 09:58 | 54.61713 | -5.87006 | 21 ft | 8 kts | 35° |
| 2026-04-26 09:58 | 54.61762 | -5.87002 | 21 ft | 6 kts | 326° |
| 2026-04-26 09:59 | 54.61767 | -5.87013 | 21 ft | 0 kts | 308° |
| 2026-04-26 10:00 | 54.61768 | -5.87014 | 21 ft | 0 kts | 308° |
| 2026-04-26 10:00 | 54.61778 | -5.87036 | 22 ft | 5 kts | 307° |
| 2026-04-26 10:00 | 54.61809 | -5.87113 | 18 ft | 12 kts | 304° |
| 2026-04-26 10:00 | 54.61879 | -5.87164 | 19 ft | 12 kts | 18° |
| 2026-04-26 10:01 | 54.61963 | -5.87068 | 16 ft | 17 kts | 34° |
| 2026-04-26 10:01 | 54.62066 | -5.86945 | 18 ft | 19 kts | 34° |
| 2026-04-26 10:01 | 54.62181 | -5.86807 | 18 ft | 20 kts | 35° |
| 2026-04-26 10:01 | 54.62295 | -5.86671 | 20 ft | 17 kts | 34° |
| 2026-04-26 10:02 | 54.62378 | -5.86571 | 22 ft | 11 kts | 34° |
| 2026-04-26 10:02 | 54.62446 | -5.86549 | 21 ft | 9 kts | 1° |
| 2026-04-26 10:02 | 54.62468 | -5.86479 | 20 ft | 4 kts | 178° |
| 2026-04-26 10:02 | 54.62433 | -5.86508 | 22 ft | 6 kts | 213° |
| 2026-04-26 10:03 | 54.62425 | -5.86517 | 21 ft | 0 kts | 214° |
| 2026-04-26 10:03 | 54.62419 | -5.86523 | 21 ft | 10 kts | 214° |
| 2026-04-26 10:03 | 54.62094 | -5.86913 | 17 ft | 100 kts | 214° |
| 2026-04-26 10:03 | 54.61328 | -5.87828 | 58 ft | 160 kts | 217° |
| 2026-04-26 10:04 | 54.60397 | -5.88942 | 742 ft | 166 kts | 213° |
| 2026-04-26 10:04 | 54.59425 | -5.90100 | 1520 ft | 178 kts | 211° |
| 2026-04-26 10:04 | 54.58246 | -5.90923 | 1859 ft | 195 kts | 178° |
| 2026-04-26 10:04 | 54.56952 | -5.90007 | 2198 ft | 219 kts | 138° |
| 2026-04-26 10:05 | 54.55854 | -5.87987 | 2639 ft | 242 kts | 133° |
| 2026-04-26 10:05 | 54.54724 | -5.85721 | 3364 ft | 254 kts | 132° |
| 2026-04-26 10:05 | 54.53561 | -5.83371 | 4236 ft | 260 kts | 132° |
| 2026-04-26 10:05 | 54.52372 | -5.80996 | 5159 ft | 263 kts | 133° |
| 2026-04-26 10:06 | 54.51159 | -5.78615 | 6085 ft | 266 kts | 134° |
| 2026-04-26 10:06 | 54.49920 | -5.76219 | 7003 ft | 269 kts | 134° |
| 2026-04-26 10:06 | 54.48752 | -5.73984 | 7798 ft | 272 kts | 135° |
| 2026-04-26 10:06 | 54.47474 | -5.71548 | 8644 ft | 276 kts | 135° |
| 2026-04-26 10:07 | 54.46180 | -5.69091 | 9485 ft | 279 kts | 135° |
| 2026-04-26 10:07 | 54.44863 | -5.66598 | 10312 ft | 283 kts | 135° |
| 2026-04-26 10:07 | 54.43494 | -5.64021 | 10680 ft | 303 kts | 135° |
| 2026-04-26 10:07 | 54.42016 | -5.61245 | 10907 ft | 325 kts | 135° |
| 2026-04-26 10:08 | 54.40465 | -5.58317 | 11417 ft | 335 kts | 135° |
| 2026-04-26 10:08 | 54.39082 | -5.55264 | 12030 ft | 343 kts | 127° |
| 2026-04-26 10:08 | 54.37723 | -5.51862 | 12694 ft | 347 kts | 127° |
| 2026-04-26 10:08 | 54.36344 | -5.48435 | 13344 ft | 352 kts | 127° |
| 2026-04-26 10:09 | 54.34938 | -5.44963 | 14012 ft | 356 kts | 127° |
| 2026-04-26 10:09 | 54.33511 | -5.41456 | 14589 ft | 361 kts | 127° |
| 2026-04-26 10:09 | 54.32067 | -5.37915 | 15186 ft | 364 kts | 127° |
| 2026-04-26 10:09 | 54.30605 | -5.34347 | 15786 ft | 367 kts | 127° |
| 2026-04-26 10:10 | 54.30108 | -5.33136 | 15986 ft | 368 kts | 127° |
| 2026-04-26 10:10 | 54.29282 | -5.31113 | 16254 ft | 372 kts | 127° |
| 2026-04-26 10:10 | 54.27796 | -5.27478 | 16892 ft | 373 kts | 128° |
| 2026-04-26 10:11 | 54.26234 | -5.23915 | 17475 ft | 376 kts | 130° |
| 2026-04-26 10:11 | 54.24586 | -5.20423 | 18069 ft | 379 kts | 132° |
| 2026-04-26 10:11 | 54.22882 | -5.16947 | 18625 ft | 383 kts | 133° |
| 2026-04-26 10:11 | 54.21149 | -5.13457 | 19132 ft | 386 kts | 133° |
| 2026-04-26 10:12 | 54.19407 | -5.09937 | 19646 ft | 389 kts | 133° |
| 2026-04-26 10:12 | 54.17662 | -5.06379 | 20175 ft | 393 kts | 133° |
| 2026-04-26 10:12 | 54.15910 | -5.02777 | 20679 ft | 396 kts | 132° |
| 2026-04-26 10:12 | 54.14146 | -4.99131 | 21175 ft | 399 kts | 132° |
| 2026-04-26 10:13 | 54.12372 | -4.95461 | 21664 ft | 402 kts | 132° |
| 2026-04-26 10:13 | 54.10588 | -4.91772 | 22149 ft | 405 kts | 132° |
| 2026-04-26 10:13 | 54.08789 | -4.88056 | 22618 ft | 408 kts | 132° |
| 2026-04-26 10:13 | 54.06975 | -4.84318 | 23077 ft | 411 kts | 132° |
| 2026-04-26 10:14 | 54.05145 | -4.80555 | 23554 ft | 414 kts | 132° |
| 2026-04-26 10:14 | 54.03315 | -4.76743 | 23988 ft | 417 kts | 131° |
| 2026-04-26 10:14 | 54.01523 | -4.72829 | 24362 ft | 421 kts | 130° |
| 2026-04-26 10:14 | 53.99752 | -4.68839 | 24725 ft | 425 kts | 129° |
| 2026-04-26 10:15 | 53.97985 | -4.64797 | 25094 ft | 428 kts | 129° |
| 2026-04-26 10:15 | 53.96206 | -4.60730 | 25458 ft | 431 kts | 129° |
| 2026-04-26 10:15 | 53.94406 | -4.56647 | 25824 ft | 433 kts | 130° |
| 2026-04-26 10:15 | 53.92586 | -4.52550 | 26195 ft | 436 kts | 130° |
| 2026-04-26 10:16 | 53.90746 | -4.48435 | 26538 ft | 439 kts | 130° |
| 2026-04-26 10:16 | 53.88887 | -4.44304 | 26912 ft | 441 kts | 130° |
| 2026-04-26 10:16 | 53.87020 | -4.40165 | 27262 ft | 444 kts | 130° |
| 2026-04-26 10:16 | 53.85181 | -4.35940 | 27612 ft | 447 kts | 129° |
| 2026-04-26 10:17 | 53.83387 | -4.31608 | 27970 ft | 451 kts | 128° |
| 2026-04-26 10:17 | 53.81613 | -4.27198 | 28316 ft | 454 kts | 127° |
| 2026-04-26 10:17 | 53.79842 | -4.22759 | 28666 ft | 457 kts | 127° |
| 2026-04-26 10:17 | 53.78055 | -4.18297 | 29008 ft | 460 kts | 128° |
| 2026-04-26 10:18 | 53.76243 | -4.13820 | 29315 ft | 463 kts | 128° |
| 2026-04-26 10:18 | 53.74404 | -4.09324 | 29630 ft | 466 kts | 128° |
| 2026-04-26 10:18 | 53.72540 | -4.04814 | 29954 ft | 469 kts | 129° |
| 2026-04-26 10:18 | 53.70658 | -4.00291 | 30287 ft | 472 kts | 129° |
| 2026-04-26 10:19 | 53.68770 | -3.95756 | 30662 ft | 472 kts | 129° |
| 2026-04-26 10:19 | 53.66889 | -3.91228 | 31079 ft | 471 kts | 129° |
| 2026-04-26 10:19 | 53.65017 | -3.86720 | 31555 ft | 469 kts | 129° |
| 2026-04-26 10:19 | 53.63166 | -3.82277 | 31976 ft | 468 kts | 129° |
| 2026-04-26 10:20 | 53.61293 | -3.77794 | 32389 ft | 468 kts | 129° |
| 2026-04-26 10:20 | 53.60027 | -3.74768 | 32672 ft | 468 kts | 129° |
| 2026-04-26 10:20 | 53.57543 | -3.68834 | 33165 ft | 469 kts | 129° |
| 2026-04-26 10:20 | 53.55663 | -3.64351 | 33274 ft | 469 kts | 129° |
| 2026-04-26 10:21 | 53.51900 | -3.55415 | 33282 ft | 467 kts | 129° |
| 2026-04-26 10:21 | 53.48134 | -3.46520 | 33290 ft | 467 kts | 128° |
| 2026-04-26 10:22 | 53.45141 | -3.36791 | 33292 ft | 471 kts | 115° |
| 2026-04-26 10:22 | 53.42575 | -3.26666 | 33310 ft | 471 kts | 115° |
| 2026-04-26 10:23 | 53.39984 | -3.16572 | 33315 ft | 471 kts | 118° |
| 2026-04-26 10:23 | 53.36513 | -3.07388 | 33320 ft | 466 kts | 130° |
| 2026-04-26 10:24 | 53.33289 | -3.00176 | 33321 ft | 466 kts | 130° |
| 2026-04-26 10:24 | 53.28783 | -2.90071 | 33331 ft | 466 kts | 130° |
| 2026-04-26 10:25 | 53.24899 | -2.81400 | 33330 ft | 466 kts | 130° |
| 2026-04-26 10:25 | 53.21641 | -2.74148 | 33313 ft | 466 kts | 130° |
| 2026-04-26 10:26 | 53.17747 | -2.65521 | 33324 ft | 465 kts | 130° |
| 2026-04-26 10:26 | 53.13850 | -2.56915 | 33343 ft | 465 kts | 130° |
| 2026-04-26 10:27 | 53.10091 | -2.48143 | 33330 ft | 465 kts | 127° |
| 2026-04-26 10:27 | 53.06525 | -2.39235 | 33333 ft | 466 kts | 126° |
| 2026-04-26 10:28 | 53.02572 | -2.30787 | 33340 ft | 460 kts | 140° |
| 2026-04-26 10:28 | 52.97451 | -2.24596 | 33310 ft | 453 kts | 152° |
| 2026-04-26 10:29 | 52.92098 | -2.19020 | 33329 ft | 454 kts | 152° |
| 2026-04-26 10:29 | 52.86764 | -2.13423 | 33332 ft | 454 kts | 151° |
| 2026-04-26 10:30 | 52.84097 | -2.10624 | 33016 ft | 455 kts | 151° |
| 2026-04-26 10:30 | 52.81419 | -2.07824 | 32353 ft | 455 kts | 152° |
| 2026-04-26 10:30 | 52.78755 | -2.05047 | 31821 ft | 451 kts | 152° |
| 2026-04-26 10:30 | 52.76108 | -2.02296 | 31276 ft | 448 kts | 152° |
| 2026-04-26 10:31 | 52.73472 | -1.99564 | 30719 ft | 446 kts | 152° |
| 2026-04-26 10:31 | 52.70853 | -1.96856 | 30156 ft | 443 kts | 152° |
| 2026-04-26 10:31 | 52.68249 | -1.94167 | 29599 ft | 439 kts | 152° |
| 2026-04-26 10:31 | 52.65707 | -1.91544 | 29087 ft | 435 kts | 152° |
| 2026-04-26 10:32 | 52.63149 | -1.88909 | 28554 ft | 430 kts | 152° |
| 2026-04-26 10:32 | 52.60618 | -1.86307 | 28019 ft | 427 kts | 152° |
| 2026-04-26 10:32 | 52.58111 | -1.83730 | 27531 ft | 423 kts | 152° |
| 2026-04-26 10:32 | 52.55630 | -1.81179 | 27034 ft | 419 kts | 151° |
| 2026-04-26 10:33 | 52.53163 | -1.78648 | 26553 ft | 416 kts | 151° |
| 2026-04-26 10:33 | 52.50716 | -1.76141 | 26080 ft | 413 kts | 151° |
| 2026-04-26 10:33 | 52.48294 | -1.73659 | 25631 ft | 409 kts | 151° |
| 2026-04-26 10:33 | 52.45883 | -1.71194 | 25180 ft | 406 kts | 151° |
| 2026-04-26 10:34 | 52.43492 | -1.68757 | 24738 ft | 404 kts | 151° |
| 2026-04-26 10:34 | 52.41106 | -1.66329 | 24297 ft | 402 kts | 151° |
| 2026-04-26 10:34 | 52.38735 | -1.63924 | 23832 ft | 400 kts | 151° |
| 2026-04-26 10:34 | 52.36371 | -1.61527 | 23342 ft | 397 kts | 151° |
| 2026-04-26 10:35 | 52.34033 | -1.59153 | 22883 ft | 393 kts | 151° |
| 2026-04-26 10:35 | 52.31719 | -1.56799 | 22442 ft | 390 kts | 151° |
| 2026-04-26 10:35 | 52.29426 | -1.54470 | 21977 ft | 386 kts | 151° |
| 2026-04-26 10:35 | 52.27148 | -1.52165 | 21498 ft | 383 kts | 150° |
| 2026-04-26 10:36 | 52.24889 | -1.49884 | 21036 ft | 380 kts | 150° |
| 2026-04-26 10:36 | 52.22672 | -1.47655 | 20555 ft | 377 kts | 150° |
| 2026-04-26 10:36 | 52.20561 | -1.45108 | 20119 ft | 376 kts | 141° |
| 2026-04-26 10:36 | 52.18603 | -1.42342 | 19771 ft | 371 kts | 141° |
| 2026-04-26 10:37 | 52.16631 | -1.39578 | 19388 ft | 367 kts | 142° |
| 2026-04-26 10:37 | 52.14728 | -1.36925 | 19017 ft | 364 kts | 142° |
| 2026-04-26 10:37 | 52.12811 | -1.34260 | 18645 ft | 361 kts | 142° |
| 2026-04-26 10:37 | 52.10906 | -1.31617 | 18243 ft | 358 kts | 142° |
| 2026-04-26 10:38 | 52.09016 | -1.28997 | 17873 ft | 356 kts | 142° |
| 2026-04-26 10:38 | 52.07136 | -1.26389 | 17513 ft | 354 kts | 142° |
| 2026-04-26 10:38 | 52.05269 | -1.23798 | 17148 ft | 352 kts | 142° |
| 2026-04-26 10:38 | 52.03414 | -1.21222 | 16790 ft | 349 kts | 142° |
| 2026-04-26 10:39 | 52.01575 | -1.18674 | 16424 ft | 347 kts | 142° |
| 2026-04-26 10:39 | 51.99743 | -1.16143 | 16070 ft | 345 kts | 142° |
| 2026-04-26 10:39 | 51.97930 | -1.13639 | 15729 ft | 343 kts | 142° |
| 2026-04-26 10:39 | 51.96113 | -1.11134 | 15377 ft | 340 kts | 142° |
| 2026-04-26 10:40 | 51.94303 | -1.08639 | 14736 ft | 345 kts | 142° |
| 2026-04-26 10:40 | 51.92442 | -1.06079 | 13849 ft | 356 kts | 141° |
| 2026-04-26 10:40 | 51.90568 | -1.03505 | 13548 ft | 347 kts | 141° |
| 2026-04-26 10:40 | 51.88762 | -1.01022 | 13410 ft | 334 kts | 141° |
| 2026-04-26 10:41 | 51.87023 | -0.98630 | 13275 ft | 322 kts | 141° |
| 2026-04-26 10:41 | 51.85440 | -0.96163 | 13132 ft | 308 kts | 129° |
| 2026-04-26 10:41 | 51.84391 | -0.93272 | 12990 ft | 290 kts | 117° |
| 2026-04-26 10:41 | 51.83522 | -0.90402 | 12669 ft | 280 kts | 118° |
| 2026-04-26 10:42 | 51.82667 | -0.87602 | 12233 ft | 275 kts | 118° |
| 2026-04-26 10:42 | 51.81820 | -0.84845 | 11743 ft | 273 kts | 118° |
| 2026-04-26 10:42 | 51.80979 | -0.82116 | 11294 ft | 269 kts | 118° |
| 2026-04-26 10:42 | 51.80150 | -0.79417 | 10799 ft | 267 kts | 118° |
| 2026-04-26 10:43 | 51.79328 | -0.76745 | 10376 ft | 264 kts | 118° |
| 2026-04-26 10:43 | 51.78512 | -0.74096 | 9911 ft | 262 kts | 117° |
| 2026-04-26 10:43 | 51.77700 | -0.71485 | 9461 ft | 258 kts | 121° |
| 2026-04-26 10:43 | 51.76473 | -0.69305 | 8985 ft | 268 kts | 149° |
| 2026-04-26 10:44 | 51.74751 | -0.68329 | 8532 ft | 261 kts | 178° |
| 2026-04-26 10:44 | 51.73025 | -0.68822 | 8175 ft | 254 kts | 206° |
| 2026-04-26 10:44 | 51.71521 | -0.70313 | 7867 ft | 254 kts | 215° |
| 2026-04-26 10:44 | 51.70062 | -0.71984 | 7569 ft | 254 kts | 216° |
| 2026-04-26 10:45 | 51.68650 | -0.73632 | 7280 ft | 254 kts | 216° |
| 2026-04-26 10:45 | 51.67224 | -0.75302 | 6987 ft | 254 kts | 216° |
| 2026-04-26 10:45 | 51.65796 | -0.76976 | 6696 ft | 253 kts | 216° |
| 2026-04-26 10:45 | 51.64383 | -0.78642 | 6376 ft | 248 kts | 216° |
| 2026-04-26 10:46 | 51.63021 | -0.80260 | 6115 ft | 240 kts | 216° |
| 2026-04-26 10:46 | 51.61658 | -0.81700 | 5843 ft | 228 kts | 199° |
| 2026-04-26 10:46 | 51.60146 | -0.82161 | 5599 ft | 216 kts | 183° |
| 2026-04-26 10:46 | 51.58669 | -0.82299 | 5395 ft | 210 kts | 181° |
| 2026-04-26 10:47 | 51.57213 | -0.82414 | 5197 ft | 209 kts | 181° |
| 2026-04-26 10:47 | 51.55767 | -0.82519 | 4993 ft | 206 kts | 181° |
| 2026-04-26 10:47 | 51.54346 | -0.82624 | 4796 ft | 203 kts | 180° |
| 2026-04-26 10:47 | 51.52943 | -0.82693 | 4579 ft | 199 kts | 170° |
| 2026-04-26 10:48 | 51.51712 | -0.81824 | 4392 ft | 192 kts | 142° |
| 2026-04-26 10:48 | 51.50719 | -0.80480 | 4209 ft | 184 kts | 136° |
| 2026-04-26 10:48 | 51.49776 | -0.79100 | 3965 ft | 182 kts | 136° |
| 2026-04-26 10:48 | 51.48851 | -0.77727 | 3747 ft | 179 kts | 135° |
| 2026-04-26 10:49 | 51.48027 | -0.76244 | 3501 ft | 178 kts | 120° |
| 2026-04-26 10:49 | 51.47635 | -0.74384 | 3269 ft | 177 kts | 96° |
| 2026-04-26 10:49 | 51.47628 | -0.72403 | 3043 ft | 176 kts | 91° |
| 2026-04-26 10:49 | 51.47639 | -0.70450 | 2824 ft | 175 kts | 91° |
| 2026-04-26 10:50 | 51.47650 | -0.68506 | 2565 ft | 175 kts | 90° |
| 2026-04-26 10:50 | 51.47657 | -0.67218 | 2406 ft | 167 kts | 91° |
| 2026-04-26 10:50 | 51.47671 | -0.64791 | 2128 ft | 158 kts | 93° |
| 2026-04-26 10:50 | 51.47680 | -0.63040 | 1907 ft | 155 kts | 92° |
| 2026-04-26 10:51 | 51.47689 | -0.61330 | 1697 ft | 154 kts | 92° |
| 2026-04-26 10:51 | 51.47706 | -0.57897 | 1273 ft | 142 kts | 92° |
| 2026-04-26 10:51 | 51.47714 | -0.56360 | 1083 ft | 135 kts | 91° |
| 2026-04-26 10:52 | 51.47720 | -0.54885 | 905 ft | 132 kts | 90° |
| 2026-04-26 10:52 | 51.47732 | -0.53412 | 733 ft | 132 kts | 89° |
| 2026-04-26 10:52 | 51.47743 | -0.51939 | 534 ft | 132 kts | 90° |
| 2026-04-26 10:52 | 51.47742 | -0.50469 | 378 ft | 134 kts | 90° |
| 2026-04-26 10:53 | 51.47752 | -0.48973 | 188 ft | 132 kts | 90° |
| 2026-04-26 10:53 | 51.47755 | -0.47544 | 89 ft | 116 kts | 90° |
| 2026-04-26 10:53 | 51.47759 | -0.46518 | 91 ft | 67 kts | 90° |
| 2026-04-26 10:54 | 51.47760 | -0.45665 | 85 ft | 18 kts | 90° |
| 2026-04-26 10:54 | 51.47726 | -0.45487 | 88 ft | 15 kts | 144° |
| 2026-04-26 10:54 | 51.47639 | -0.45469 | 86 ft | 9 kts | 180° |
| 2026-04-26 10:54 | 51.47596 | -0.45536 | 90 ft | 11 kts | 265° |
| 2026-04-26 10:55 | 51.47595 | -0.45670 | 88 ft | 13 kts | 270° |
| 2026-04-26 10:55 | 51.47595 | -0.45831 | 89 ft | 16 kts | 270° |
| 2026-04-26 10:55 | 51.47595 | -0.46018 | 88 ft | 18 kts | 269° |
| 2026-04-26 10:55 | 51.47594 | -0.46124 | 87 ft | 14 kts | 269° |
| 2026-04-26 10:56 | 51.47593 | -0.46354 | 87 ft | 17 kts | 269° |
| 2026-04-26 10:56 | 51.47592 | -0.46553 | 87 ft | 16 kts | 270° |
| 2026-04-26 10:56 | 51.47591 | -0.46717 | 87 ft | 16 kts | 269° |
| 2026-04-26 10:56 | 51.47583 | -0.46899 | 87 ft | 17 kts | 267° |
| 2026-04-26 10:57 | 51.47582 | -0.47099 | 91 ft | 19 kts | 270° |
| 2026-04-26 10:57 | 51.47581 | -0.47301 | 89 ft | 18 kts | 270° |
| 2026-04-26 10:57 | 51.47581 | -0.47490 | 90 ft | 14 kts | 269° |
| 2026-04-26 10:57 | 51.47580 | -0.47665 | 90 ft | 17 kts | 270° |
| 2026-04-26 10:58 | 51.47579 | -0.47866 | 90 ft | 19 kts | 270° |
| 2026-04-26 10:58 | 51.47579 | -0.48058 | 90 ft | 13 kts | 270° |
| 2026-04-26 10:58 | 51.47578 | -0.48219 | 89 ft | 16 kts | 269° |
| 2026-04-26 10:58 | 51.47577 | -0.48369 | 88 ft | 12 kts | 269° |
| 2026-04-26 10:59 | 51.47539 | -0.48478 | 87 ft | 13 kts | 189° |
| 2026-04-26 10:59 | 51.47445 | -0.48478 | 87 ft | 14 kts | 180° |
| 2026-04-26 10:59 | 51.47343 | -0.48476 | 87 ft | 15 kts | 179° |
| 2026-04-26 10:59 | 51.47240 | -0.48476 | 87 ft | 13 kts | 180° |
| 2026-04-26 11:00 | 51.47143 | -0.48475 | 87 ft | 14 kts | 180° |
| 2026-04-26 11:00 | 51.47051 | -0.48474 | 87 ft | 10 kts | 179° |
| 2026-04-26 11:00 | 51.46976 | -0.48473 | 87 ft | 11 kts | 179° |
| 2026-04-26 11:00 | 51.46900 | -0.48476 | 87 ft | 10 kts | 196° |
| 2026-04-26 11:01 | 51.46877 | -0.48573 | 87 ft | 9 kts | 269° |
| 2026-04-26 11:01 | 51.46865 | -0.48617 | 88 ft | 4 kts | 207° |
| 2026-04-26 11:01 | 51.46842 | -0.48622 | 87 ft | 2 kts | 181° |
| 2026-04-26 11:01 | 51.46837 | -0.48622 | 87 ft | 0 kts | 180° |
| 2026-04-26 11:02 | 51.46832 | -0.48622 | 87 ft | 0 kts | 180° |